createdAt,value
2024-01-15T00:00:41.599Z,0.86
2024-01-15T00:01:41.552Z,0.86
2024-01-15T00:02:41.601Z,0.85
2024-01-15T00:03:42.377Z,0.86
2024-01-15T00:04:41.701Z,0.87
2024-01-15T00:05:41.779Z,0.84
2024-01-15T00:06:41.921Z,0.86
2024-01-15T00:07:41.838Z,0.85
2024-01-15T00:08:41.870Z,0.85
2024-01-15T00:09:41.985Z,0.84
2024-01-15T00:10:42.013Z,0.84
2024-01-15T00:11:42.014Z,0.84
2024-01-15T00:12:42.142Z,0.85
2024-01-15T00:13:42.078Z,0.84
2024-01-15T00:14:42.057Z,0.85
2024-01-15T00:15:42.086Z,0.84
2024-01-15T00:16:42.052Z,0.83
2024-01-15T00:17:42.102Z,0.84
2024-01-15T00:18:42.201Z,0.81
2024-01-15T00:19:42.153Z,0.82
2024-01-15T00:20:42.083Z,0.82
2024-01-15T00:21:42.110Z,0.82
2024-01-15T00:22:42.081Z,0.82
2024-01-15T00:23:42.133Z,0.82
2024-01-15T00:24:42.254Z,0.78
2024-01-15T00:25:42.269Z,0.78
2024-01-15T00:26:42.270Z,0.78
2024-01-15T00:27:42.379Z,0.79
2024-01-15T00:28:42.342Z,0.78
2024-01-15T00:29:42.379Z,0.79
2024-01-15T00:30:42.483Z,0.79
2024-01-15T00:31:42.600Z,0.78
2024-01-15T00:32:42.578Z,0.79
2024-01-15T00:33:42.768Z,0.78
2024-01-15T00:34:42.714Z,0.78
2024-01-15T00:35:42.616Z,0.79
2024-01-15T00:36:42.663Z,0.77
2024-01-15T00:37:42.713Z,0.78
2024-01-15T00:38:42.757Z,0.78
2024-01-15T00:39:42.868Z,0.79
2024-01-15T00:40:42.925Z,0.78
2024-01-15T00:41:43.719Z,0.79
2024-01-15T00:42:43.078Z,0.77
2024-01-15T00:43:43.096Z,0.77
2024-01-15T00:44:43.167Z,0.76
2024-01-15T00:45:43.263Z,0.76
2024-01-15T00:46:43.308Z,0.76
2024-01-15T00:47:43.493Z,0.78
2024-01-15T00:48:43.532Z,0.77
2024-01-15T00:49:43.562Z,0.77
2024-01-15T00:50:43.592Z,0.76
2024-01-15T00:51:43.789Z,0.75
2024-01-15T00:52:43.721Z,0.75
2024-01-15T00:53:43.794Z,0.75
2024-01-15T00:54:43.912Z,0.76
2024-01-15T00:55:43.909Z,0.76
2024-01-15T00:56:44.015Z,0.76
2024-01-15T00:57:44.112Z,0.76
2024-01-15T00:58:44.130Z,0.76
2024-01-15T00:59:44.167Z,0.75
2024-01-15T01:00:44.370Z,0.74
2024-01-15T01:01:44.447Z,0.76
2024-01-15T01:02:44.271Z,0.75
2024-01-15T01:03:44.301Z,0.74
2024-01-15T01:04:44.245Z,0.74
2024-01-15T01:05:44.321Z,0.73
2024-01-15T01:06:44.332Z,0.73
2024-01-15T01:07:44.293Z,0.71
2024-01-15T01:08:44.350Z,0.71
2024-01-15T01:09:44.469Z,0.72
2024-01-15T01:10:44.360Z,0.74
2024-01-15T01:11:44.397Z,0.74
2024-01-15T01:12:44.554Z,0.75
2024-01-15T01:13:44.487Z,0.73
2024-01-15T01:14:44.545Z,0.73
2024-01-15T01:15:44.711Z,0.74
2024-01-15T01:16:44.688Z,0.73
2024-01-15T01:17:44.830Z,0.72
2024-01-15T01:18:44.946Z,0.71
2024-01-15T01:19:45.014Z,0.72
2024-01-15T01:20:44.960Z,0.71
2024-01-15T01:21:45.158Z,0.73
2024-01-15T01:22:45.045Z,0.73
2024-01-15T01:23:45.066Z,0.72
2024-01-15T01:24:45.156Z,0.72
2024-01-15T01:25:45.080Z,0.73
2024-01-15T01:26:45.078Z,0.71
2024-01-15T01:27:45.228Z,0.72
2024-01-15T01:28:45.089Z,0.74
2024-01-15T01:29:45.097Z,0.73
2024-01-15T01:30:45.278Z,0.73
2024-01-15T01:31:45.301Z,0.74
2024-01-15T01:32:45.170Z,0.74
2024-01-15T01:33:45.261Z,0.73
2024-01-15T01:34:45.207Z,0.74
2024-01-15T01:35:45.166Z,0.72
2024-01-15T01:36:45.302Z,0.73
2024-01-15T01:37:45.213Z,0.72
2024-01-15T01:38:45.194Z,0.73
2024-01-15T01:39:45.265Z,0.73
2024-01-15T01:40:45.213Z,0.74
2024-01-15T01:41:45.201Z,0.73
2024-01-15T01:42:45.333Z,0.72
2024-01-15T01:43:45.261Z,0.73
2024-01-15T01:44:45.262Z,0.72
2024-01-15T01:45:45.311Z,0.71
2024-01-15T01:46:45.230Z,0.73
2024-01-15T01:47:45.319Z,0.74
2024-01-15T01:48:45.298Z,0.73
2024-01-15T01:49:45.358Z,0.75
2024-01-15T01:50:45.332Z,0.72
2024-01-15T01:51:45.357Z,0.71
2024-01-15T01:52:45.305Z,0.72
2024-01-15T01:53:46.241Z,0.74
2024-01-15T01:54:45.372Z,0.72
2024-01-15T01:55:45.345Z,0.72
2024-01-15T01:56:45.349Z,0.71
2024-01-15T01:57:45.441Z,0.71
2024-01-15T01:58:45.395Z,0.70
2024-01-15T01:59:45.381Z,0.72
2024-01-15T02:00:45.491Z,0.72
2024-01-15T02:01:45.444Z,0.72
2024-01-15T02:02:45.381Z,0.72
2024-01-15T02:03:45.495Z,0.72
2024-01-15T02:04:45.484Z,0.71
2024-01-15T02:05:45.483Z,0.72
2024-01-15T02:06:45.550Z,0.71
2024-01-15T02:07:45.442Z,0.72
2024-01-15T02:08:45.420Z,0.73
2024-01-15T02:09:45.568Z,0.72
2024-01-15T02:10:45.502Z,0.72
2024-01-15T02:11:45.560Z,0.71
2024-01-15T02:12:45.640Z,0.72
2024-01-15T02:13:45.569Z,0.73
2024-01-15T02:14:45.539Z,0.73
2024-01-15T02:15:45.657Z,0.72
2024-01-15T02:16:45.606Z,0.73
2024-01-15T02:17:45.625Z,0.73
2024-01-15T02:18:45.840Z,0.72
2024-01-15T02:19:45.752Z,0.72
2024-01-15T02:20:45.870Z,0.72
2024-01-15T02:21:45.861Z,0.72
2024-01-15T02:22:45.835Z,0.71
2024-01-15T02:23:45.846Z,0.71
2024-01-15T02:24:45.938Z,0.72
2024-01-15T02:25:46.153Z,0.72
2024-01-15T02:26:45.975Z,0.71
2024-01-15T02:27:46.060Z,0.72
2024-01-15T02:28:46.043Z,0.71
2024-01-15T02:29:46.085Z,0.71
2024-01-15T02:30:46.476Z,0.72
2024-01-15T02:31:46.448Z,0.70
2024-01-15T02:32:46.300Z,0.72
2024-01-15T02:33:46.330Z,0.73
2024-01-15T02:34:46.403Z,0.72
2024-01-15T02:35:46.292Z,0.72
2024-01-15T02:36:46.416Z,0.71
2024-01-15T02:37:46.384Z,0.71
2024-01-15T02:38:46.412Z,0.72
2024-01-15T02:39:46.478Z,0.73
2024-01-15T02:40:46.508Z,0.73
2024-01-15T02:41:46.509Z,0.71
2024-01-15T02:42:46.607Z,0.70
2024-01-15T02:43:46.583Z,0.70
2024-01-15T02:44:46.614Z,0.71
2024-01-15T02:45:46.697Z,0.73
2024-01-15T02:46:46.712Z,0.71
2024-01-15T02:47:46.744Z,0.70
2024-01-15T02:48:46.878Z,0.70
2024-01-15T02:49:46.863Z,0.71
2024-01-15T02:50:46.848Z,0.72
2024-01-15T02:51:46.967Z,0.72
2024-01-15T02:52:46.943Z,0.72
2024-01-15T02:53:47.024Z,0.71
2024-01-15T02:54:47.055Z,0.73
2024-01-15T02:55:47.047Z,0.72
2024-01-15T02:56:47.137Z,0.72
2024-01-15T02:57:47.161Z,0.73
2024-01-15T02:58:47.184Z,0.71
2024-01-15T02:59:47.234Z,0.74
2024-01-15T03:00:47.313Z,0.72
2024-01-15T03:01:47.377Z,0.72
2024-01-15T03:02:48.859Z,0.72
2024-01-15T03:03:47.535Z,0.72
2024-01-15T03:04:47.424Z,0.72
2024-01-15T03:05:47.494Z,0.71
2024-01-15T03:06:47.553Z,0.71
2024-01-15T03:07:47.543Z,0.72
2024-01-15T03:08:47.582Z,0.74
2024-01-15T03:09:47.746Z,0.74
2024-01-15T03:10:47.629Z,0.74
2024-01-15T03:11:47.676Z,0.74
2024-01-15T03:12:47.821Z,0.73
2024-01-15T03:13:47.761Z,0.75
2024-01-15T03:14:47.789Z,0.74
2024-01-15T03:15:47.815Z,0.75
2024-01-15T03:16:47.829Z,0.73
2024-01-15T03:17:48.000Z,0.73
2024-01-15T03:18:47.987Z,0.74
2024-01-15T03:19:48.031Z,0.72
2024-01-15T03:20:47.970Z,0.72
2024-01-15T03:21:48.061Z,0.72
2024-01-15T03:22:48.029Z,0.73
2024-01-15T03:23:48.052Z,0.72
2024-01-15T03:24:48.234Z,0.72
2024-01-15T03:25:48.129Z,0.71
2024-01-15T03:26:48.140Z,0.72
2024-01-15T03:27:48.200Z,0.73
2024-01-15T03:28:48.197Z,0.71
2024-01-15T03:29:48.239Z,0.71
2024-01-15T03:30:48.383Z,0.72
2024-01-15T03:31:48.469Z,0.71
2024-01-15T03:32:48.458Z,0.70
2024-01-15T03:33:48.508Z,0.70
2024-01-15T03:34:48.642Z,0.70
2024-01-15T03:35:48.416Z,0.71
2024-01-15T03:36:48.578Z,0.71
2024-01-15T03:37:48.465Z,0.72
2024-01-15T03:38:48.565Z,0.71
2024-01-15T03:39:48.769Z,0.72
2024-01-15T03:40:48.799Z,0.70
2024-01-15T03:41:48.713Z,0.71
2024-01-15T03:42:48.918Z,0.71
2024-01-15T03:43:48.859Z,0.69
2024-01-15T03:44:48.822Z,0.71
2024-01-15T03:45:48.934Z,0.71
2024-01-15T03:46:48.920Z,0.70
2024-01-15T03:47:49.012Z,0.71
2024-01-15T03:48:49.104Z,0.71
2024-01-15T03:49:49.156Z,0.70
2024-01-15T03:50:49.037Z,0.69
2024-01-15T03:51:49.231Z,0.69
2024-01-15T03:52:49.098Z,0.69
2024-01-15T03:53:49.117Z,0.70
2024-01-15T03:54:49.211Z,0.69
2024-01-15T03:55:49.276Z,0.67
2024-01-15T03:56:49.237Z,0.67
2024-01-15T03:57:49.312Z,0.68
2024-01-15T03:58:49.283Z,0.70
2024-01-15T03:59:49.313Z,0.68
2024-01-15T04:00:49.497Z,0.69
2024-01-15T04:02:49.468Z,0.69
2024-01-15T04:03:49.573Z,0.67
2024-01-15T04:04:49.564Z,0.67
2024-01-15T04:05:49.515Z,0.67
2024-01-15T04:06:49.701Z,0.67
2024-01-15T04:07:49.646Z,0.67
2024-01-15T04:08:49.674Z,0.67
2024-01-15T04:09:49.981Z,0.66
2024-01-15T04:10:49.843Z,0.65
2024-01-15T04:11:49.953Z,0.67
2024-01-15T04:12:50.043Z,0.67
2024-01-15T04:13:50.037Z,0.65
2024-01-15T04:14:49.998Z,0.65
2024-01-15T04:15:50.180Z,0.67
2024-01-15T04:16:50.067Z,0.65
2024-01-15T04:17:50.130Z,0.66
2024-01-15T04:18:50.176Z,0.66
2024-01-15T04:19:50.309Z,0.64
2024-01-15T04:20:50.219Z,0.64
2024-01-15T04:21:57.439Z,0.50
2024-01-15T04:22:57.400Z,0.50
2024-01-15T04:23:57.383Z,0.50
2024-01-15T04:24:57.504Z,0.50
2024-01-15T04:25:57.414Z,0.50
2024-01-15T04:26:57.439Z,0.52
2024-01-15T04:27:57.417Z,0.51
2024-01-15T04:28:57.402Z,0.51
2024-01-15T04:29:57.400Z,0.51
2024-01-15T04:31:04.651Z,0.50
2024-01-15T04:32:04.586Z,0.50
2024-01-15T04:33:04.679Z,0.50
2024-01-15T04:34:04.641Z,0.50
2024-01-15T04:35:04.588Z,0.50
2024-01-15T04:36:04.609Z,0.51
2024-01-15T04:37:04.563Z,0.50
2024-01-15T04:38:04.576Z,0.52
2024-01-15T04:39:04.572Z,0.50
2024-01-15T04:40:04.604Z,0.51
2024-01-15T04:41:04.608Z,0.51
2024-01-15T04:42:04.605Z,0.52
2024-01-15T04:43:04.616Z,0.50
2024-01-15T04:44:04.620Z,0.51
2024-01-15T04:45:04.636Z,0.50
2024-01-15T04:46:04.596Z,0.50
2024-01-15T04:47:04.657Z,0.51
2024-01-15T04:48:04.654Z,0.50
2024-01-15T04:49:04.708Z,0.51
2024-01-15T04:50:04.697Z,0.52
2024-01-15T04:51:04.626Z,0.51
2024-01-15T04:52:04.638Z,0.51
2024-01-15T04:53:04.623Z,0.53
2024-01-15T04:54:04.608Z,0.52
2024-01-15T04:55:04.626Z,0.52
2024-01-15T04:56:04.621Z,0.53
2024-01-15T04:57:04.621Z,0.52
2024-01-15T04:58:05.223Z,0.52
2024-01-15T04:59:04.631Z,0.53
2024-01-15T05:00:04.630Z,0.52
2024-01-15T05:01:04.727Z,0.53
2024-01-15T05:02:04.604Z,0.52
2024-01-15T05:03:04.668Z,0.52
2024-01-15T05:04:04.661Z,0.53
2024-01-15T05:05:04.626Z,0.53
2024-01-15T05:06:04.907Z,0.53
2024-01-15T05:07:04.652Z,0.53
2024-01-15T05:08:04.670Z,0.54
2024-01-15T05:09:04.690Z,0.52
2024-01-15T05:10:04.858Z,0.55
2024-01-15T05:11:04.704Z,0.53
2024-01-15T05:12:04.723Z,0.54
2024-01-15T05:13:04.706Z,0.53
2024-01-15T05:14:04.735Z,0.53
2024-01-15T05:15:04.759Z,0.52
2024-01-15T05:16:04.840Z,0.50
2024-01-15T05:17:06.226Z,0.51
2024-01-15T05:18:04.879Z,0.51
2024-01-15T05:19:04.890Z,0.53
2024-01-15T05:20:04.979Z,0.52
2024-01-15T05:21:04.777Z,0.52
2024-01-15T05:22:04.752Z,0.53
2024-01-15T05:23:04.740Z,0.52
2024-01-15T05:24:04.748Z,0.51
2024-01-15T05:25:04.771Z,0.53
2024-01-15T05:26:04.764Z,0.53
2024-01-15T05:27:04.776Z,0.53
2024-01-15T05:28:04.769Z,0.53
2024-01-15T05:29:04.770Z,0.53
2024-01-15T05:30:04.787Z,0.53
2024-01-15T05:31:04.876Z,0.52
2024-01-15T05:32:04.897Z,0.52
2024-01-15T05:33:04.804Z,0.53
2024-01-15T05:34:04.948Z,0.52
2024-01-15T05:35:04.890Z,0.53
2024-01-15T05:36:04.773Z,0.52
2024-01-15T05:37:04.784Z,0.53
2024-01-15T05:38:04.753Z,0.52
2024-01-15T05:39:04.790Z,0.50
2024-01-15T05:40:04.841Z,0.52
2024-01-15T05:41:05.279Z,0.52
2024-01-15T05:42:04.761Z,0.51
2024-01-15T05:43:04.777Z,0.52
2024-01-15T05:44:04.782Z,0.51
2024-01-15T05:45:04.793Z,0.52
2024-01-15T05:46:04.817Z,0.51
2024-01-15T05:47:04.775Z,0.52
2024-01-15T05:48:04.836Z,0.53
2024-01-15T05:49:04.863Z,0.53
2024-01-15T05:50:04.881Z,0.52
2024-01-15T05:51:04.795Z,0.52
2024-01-15T05:52:04.785Z,0.54
2024-01-15T05:53:04.790Z,0.53
2024-01-15T05:54:04.778Z,0.53
2024-01-15T05:55:04.778Z,0.51
2024-01-15T05:56:04.788Z,0.53
2024-01-15T05:57:04.760Z,0.53
2024-01-15T05:58:04.817Z,0.53
2024-01-15T05:59:04.775Z,0.53
2024-01-15T06:00:04.793Z,0.51
2024-01-15T06:01:27.920Z,0.52
2024-01-15T06:02:04.824Z,0.52
2024-01-15T06:03:04.763Z,0.53
2024-01-15T06:04:04.909Z,0.53
2024-01-15T06:05:04.858Z,0.54
2024-01-15T06:06:05.798Z,0.55
2024-01-15T06:07:04.946Z,0.55
2024-01-15T06:08:04.902Z,0.55
2024-01-15T06:09:04.958Z,0.53
2024-01-15T06:10:04.992Z,0.54
2024-01-15T06:11:05.070Z,0.56
2024-01-15T06:12:05.089Z,0.54
2024-01-15T06:13:05.185Z,0.55
2024-01-15T06:14:05.187Z,0.53
2024-01-15T06:15:05.266Z,0.53
2024-01-15T06:16:06.927Z,0.53
2024-01-15T06:17:05.304Z,0.52
2024-01-15T06:18:05.505Z,0.54
2024-01-15T06:19:05.411Z,0.52
2024-01-15T06:20:05.329Z,0.53
2024-01-15T06:21:05.303Z,0.52
2024-01-15T06:22:05.392Z,0.52
2024-01-15T06:23:05.270Z,0.52
2024-01-15T06:24:05.321Z,0.53
2024-01-15T06:25:05.357Z,0.53
2024-01-15T06:26:05.484Z,0.53
2024-01-15T06:27:05.514Z,0.53
2024-01-15T06:28:05.493Z,0.53
2024-01-15T06:29:05.501Z,0.52
2024-01-15T06:30:05.552Z,0.53
2024-01-15T06:31:05.896Z,0.53
2024-01-15T06:32:05.584Z,0.52
2024-01-15T06:33:05.607Z,0.52
2024-01-15T06:34:05.702Z,0.51
2024-01-15T06:35:05.563Z,0.51
2024-01-15T06:36:05.772Z,0.51
2024-01-15T06:37:05.826Z,0.53
2024-01-15T06:38:05.666Z,0.51
2024-01-15T06:39:05.740Z,0.51
2024-01-15T06:40:05.848Z,0.52
2024-01-15T06:41:05.894Z,0.52
2024-01-15T06:42:06.261Z,0.52
2024-01-15T06:43:05.998Z,0.51
2024-01-15T06:44:06.076Z,0.52
2024-01-15T06:45:06.069Z,0.52
2024-01-15T06:46:28.827Z,0.53
2024-01-15T06:47:06.117Z,0.53
2024-01-15T06:48:06.218Z,0.53
2024-01-15T06:49:06.216Z,0.54
2024-01-15T06:50:06.240Z,0.54
2024-01-15T06:51:06.113Z,0.55
2024-01-15T06:52:06.169Z,0.57
2024-01-15T06:53:06.133Z,0.56
2024-01-15T06:54:06.092Z,0.57
2024-01-15T06:55:06.117Z,0.58
2024-01-15T06:56:06.115Z,0.58
2024-01-15T06:57:06.136Z,0.62
2024-01-15T06:58:06.124Z,0.63
2024-01-15T06:59:06.140Z,0.65
2024-01-15T07:00:06.112Z,0.65
2024-01-15T07:01:06.373Z,0.67
2024-01-15T07:02:06.176Z,0.70
2024-01-15T07:03:06.201Z,0.72
2024-01-15T07:04:06.194Z,0.73
2024-01-15T07:05:06.265Z,0.76
2024-01-15T07:06:06.254Z,0.80
2024-01-15T07:07:06.333Z,0.84
2024-01-15T07:08:06.427Z,0.84
2024-01-15T07:09:06.510Z,0.88
2024-01-15T07:10:06.554Z,0.88
2024-01-15T07:11:06.629Z,0.99
2024-01-15T07:12:06.682Z,1.04
2024-01-15T07:13:06.767Z,1.08
2024-01-15T07:14:06.778Z,1.17
2024-01-15T07:15:06.876Z,1.18
2024-01-15T07:16:07.013Z,1.20
2024-01-15T07:17:06.990Z,1.25
2024-01-15T07:18:07.072Z,1.31
2024-01-15T07:19:07.198Z,1.37
2024-01-15T07:20:07.235Z,1.37
2024-01-15T07:21:07.233Z,1.44
2024-01-15T07:22:07.294Z,1.52
2024-01-15T07:23:07.314Z,1.55
2024-01-15T07:24:07.382Z,1.59
2024-01-15T07:25:07.573Z,1.69
2024-01-15T07:26:07.485Z,1.74
2024-01-15T07:27:07.574Z,1.85
2024-01-15T07:28:07.576Z,1.85
2024-01-15T07:29:07.618Z,1.89
2024-01-15T07:30:07.751Z,1.93
2024-01-15T07:31:07.754Z,1.99
2024-01-15T07:32:07.705Z,2.02
2024-01-15T07:33:07.887Z,2.05
2024-01-15T07:34:07.812Z,2.15
2024-01-15T07:35:07.756Z,2.14
2024-01-15T07:36:07.759Z,2.17
2024-01-15T07:37:07.868Z,2.20
2024-01-15T07:38:07.797Z,2.24
2024-01-15T07:39:07.869Z,2.30
2024-01-15T07:40:08.135Z,2.31
2024-01-15T07:41:08.802Z,2.35
2024-01-15T07:42:08.372Z,2.38
2024-01-15T07:43:07.883Z,2.39
2024-01-15T07:44:07.871Z,2.43
2024-01-15T07:45:07.958Z,2.52
2024-01-15T07:46:08.026Z,2.68
2024-01-15T07:47:07.959Z,2.71
2024-01-15T07:48:08.031Z,2.75
2024-01-15T07:49:08.047Z,2.81
2024-01-15T07:50:08.231Z,2.86
2024-01-15T07:51:08.880Z,2.84
2024-01-15T07:52:08.114Z,2.90
2024-01-15T07:53:08.166Z,2.88
2024-01-15T07:54:08.248Z,2.94
2024-01-15T07:55:08.303Z,2.96
2024-01-15T07:56:08.320Z,2.97
2024-01-15T07:57:08.444Z,2.97
2024-01-15T07:58:15.712Z,2.93
2024-01-15T07:59:09.413Z,2.94
2024-01-15T08:00:08.564Z,2.95
2024-01-15T08:01:08.573Z,2.98
2024-01-15T08:02:08.839Z,2.99
2024-01-15T08:03:08.491Z,3.02
2024-01-15T08:04:08.502Z,3.01
2024-01-15T08:05:08.457Z,2.98
2024-01-15T08:06:08.532Z,3.00
2024-01-15T08:07:08.888Z,2.97
2024-01-15T08:08:08.455Z,2.98
2024-01-15T08:09:08.477Z,2.89
2024-01-15T08:10:08.482Z,2.86
2024-01-15T08:11:08.504Z,2.81
2024-01-15T08:12:08.546Z,2.77
2024-01-15T08:13:08.521Z,2.74
2024-01-15T08:14:08.520Z,2.65
2024-01-15T08:15:08.569Z,2.69
2024-01-15T08:16:09.364Z,2.65
2024-01-15T08:17:08.814Z,2.66
2024-01-15T08:18:08.627Z,2.60
2024-01-15T08:19:08.792Z,2.55
2024-01-15T08:20:08.697Z,2.58
2024-01-15T08:21:08.605Z,2.57
2024-01-15T08:22:09.340Z,2.54
2024-01-15T08:23:08.585Z,2.54
2024-01-15T08:24:08.600Z,2.53
2024-01-15T08:25:08.632Z,2.59
2024-01-15T08:26:08.676Z,2.56
2024-01-15T08:27:09.400Z,2.54
2024-01-15T08:28:08.750Z,2.55
2024-01-15T08:29:08.829Z,2.57
2024-01-15T08:30:08.925Z,2.60
2024-01-15T08:31:09.109Z,2.56
2024-01-15T08:32:09.010Z,2.65
2024-01-15T08:33:14.724Z,2.68
2024-01-15T08:34:10.160Z,2.69
2024-01-15T08:35:09.164Z,2.70
2024-01-15T08:36:09.110Z,2.70
2024-01-15T08:37:09.846Z,2.75
2024-01-15T08:38:09.048Z,2.85
2024-01-15T08:39:09.164Z,2.90
2024-01-15T08:40:09.047Z,2.85
2024-01-15T08:41:09.837Z,2.76
2024-01-15T08:42:09.199Z,2.63
2024-01-15T08:43:09.051Z,2.42
2024-01-15T08:44:09.070Z,2.29
2024-01-15T08:45:09.116Z,2.29
2024-01-15T08:46:09.798Z,2.22
2024-01-15T08:47:09.065Z,2.12
2024-01-15T08:48:09.535Z,2.12
2024-01-15T08:49:09.165Z,2.07
2024-01-15T08:50:09.019Z,1.93
2024-01-15T08:51:09.236Z,1.83
2024-01-15T08:52:09.078Z,1.77
2024-01-15T08:53:09.110Z,1.64
2024-01-15T08:54:09.123Z,1.58
2024-01-15T08:55:09.062Z,1.46
2024-01-15T08:56:09.103Z,1.37
2024-01-15T08:57:09.126Z,1.31
2024-01-15T08:58:09.244Z,1.23
2024-01-15T08:59:09.187Z,1.17
2024-01-15T09:00:09.264Z,1.10
2024-01-15T09:01:09.327Z,1.05
2024-01-15T09:02:09.308Z,0.99
2024-01-15T09:03:09.370Z,0.93
2024-01-15T09:04:09.460Z,0.88
2024-01-15T09:05:09.539Z,0.82
2024-01-15T09:06:09.541Z,0.83
2024-01-15T09:07:09.501Z,0.78
2024-01-15T09:08:09.543Z,0.75
2024-01-15T09:09:09.543Z,0.74
2024-01-15T09:10:09.550Z,0.74
2024-01-15T09:11:09.517Z,0.70
2024-01-15T09:12:09.573Z,0.68
2024-01-15T09:13:09.558Z,0.66
2024-01-15T09:14:09.544Z,0.62
2024-01-15T09:15:09.624Z,0.58
2024-01-15T09:16:09.632Z,0.56
2024-01-15T09:17:09.572Z,0.53
2024-01-15T09:18:09.709Z,0.51
2024-01-15T09:19:09.794Z,0.50
2024-01-15T09:20:09.788Z,0.50
2024-01-15T09:21:09.786Z,0.50
2024-01-15T09:22:09.768Z,0.52
2024-01-15T09:23:09.913Z,0.50
2024-01-15T09:24:09.954Z,0.50
2024-01-15T09:25:09.929Z,0.50
2024-01-15T09:26:09.986Z,0.50
2024-01-15T09:27:09.968Z,0.52
2024-01-15T09:28:09.962Z,0.51
2024-01-15T09:29:09.966Z,0.51
2024-01-15T09:30:10.130Z,0.50
2024-01-15T09:31:10.111Z,0.52
2024-01-15T09:32:10.009Z,0.54
2024-01-15T09:33:11.950Z,0.57
2024-01-15T09:34:10.042Z,0.59
2024-01-15T09:35:10.052Z,0.63
2024-01-15T09:36:10.060Z,0.62
2024-01-15T09:37:13.022Z,0.61
2024-01-15T09:38:10.934Z,0.61
2024-01-15T09:39:10.153Z,0.57
2024-01-15T09:40:10.082Z,0.53
2024-01-15T09:41:10.255Z,0.53
2024-01-15T09:42:10.199Z,0.52
2024-01-15T09:43:10.414Z,0.49
2024-01-15T09:44:10.119Z,0.51
2024-01-15T09:45:10.175Z,0.51
2024-01-15T09:46:10.124Z,0.51
2024-01-15T09:47:10.116Z,0.50
2024-01-15T09:48:10.221Z,0.52
2024-01-15T09:49:10.243Z,0.50
2024-01-15T09:50:10.242Z,0.50
2024-01-15T09:51:10.176Z,0.50
2024-01-15T09:53:10.119Z,0.50
2024-01-15T09:54:10.145Z,0.50
2024-01-15T09:55:10.136Z,0.50
2024-01-15T09:56:10.147Z,0.49
2024-01-15T09:57:10.144Z,0.51
2024-01-15T09:58:10.372Z,0.50
2024-01-15T09:59:10.104Z,0.51
2024-01-15T10:00:10.127Z,0.51
2024-01-15T10:01:10.169Z,0.49
2024-01-15T10:02:10.109Z,0.50
2024-01-15T10:03:10.142Z,0.50
2024-01-15T10:04:10.141Z,0.52
2024-01-15T10:05:10.146Z,0.55
2024-01-15T10:06:10.210Z,0.60
2024-01-15T10:07:10.108Z,0.63
2024-01-15T10:08:10.098Z,0.67
2024-01-15T10:09:10.143Z,0.66
2024-01-15T10:10:10.193Z,0.68
2024-01-15T10:11:10.123Z,0.69
2024-01-15T10:12:10.099Z,0.71
2024-01-15T10:13:10.375Z,0.71
2024-01-15T10:14:10.114Z,0.70
2024-01-15T10:15:10.148Z,0.69
2024-01-15T10:16:10.172Z,0.70
2024-01-15T10:17:10.128Z,0.74
2024-01-15T10:18:10.281Z,0.79
2024-01-15T10:19:10.495Z,0.85
2024-01-15T10:20:10.350Z,0.85
2024-01-15T10:21:10.383Z,0.91
2024-01-15T10:22:10.413Z,0.96
2024-01-15T10:23:10.475Z,1.02
2024-01-15T10:24:10.561Z,1.06
2024-01-15T10:25:10.520Z,1.06
2024-01-15T10:26:10.546Z,1.11
2024-01-15T10:27:10.603Z,1.15
2024-01-15T10:28:10.554Z,1.21
2024-01-15T10:29:10.591Z,1.20
2024-01-15T10:30:10.687Z,1.23
2024-01-15T10:31:10.730Z,1.27
2024-01-15T10:32:11.001Z,1.25
2024-01-15T10:33:10.873Z,1.28
2024-01-15T10:34:10.917Z,1.38
2024-01-15T10:35:10.892Z,1.43
2024-01-15T10:36:11.062Z,1.59
2024-01-15T10:37:11.024Z,1.67
2024-01-15T10:38:10.988Z,1.77
2024-01-15T10:39:11.026Z,1.90
2024-01-15T10:40:11.012Z,1.99
2024-01-15T10:41:11.088Z,2.02
2024-01-15T10:42:11.196Z,2.11
2024-01-15T10:43:11.196Z,2.17
2024-01-15T10:44:11.296Z,2.35
2024-01-15T10:45:11.374Z,2.45
2024-01-15T10:46:11.444Z,2.55
2024-01-15T10:47:11.422Z,2.69
2024-01-15T10:48:11.658Z,2.78
2024-01-15T10:49:11.635Z,2.93
2024-01-15T10:50:11.612Z,3.07
2024-01-15T10:51:11.959Z,3.25
2024-01-15T10:52:11.752Z,3.33
2024-01-15T10:53:11.783Z,3.43
2024-01-15T10:54:11.955Z,3.55
2024-01-15T10:55:16.092Z,3.76
2024-01-15T10:56:12.939Z,3.77
2024-01-15T10:57:11.906Z,3.81
2024-01-15T10:58:11.913Z,3.90
2024-01-15T10:59:11.858Z,4.13
2024-01-15T11:00:11.943Z,4.44
2024-01-15T11:01:12.001Z,4.58
2024-01-15T11:02:14.463Z,4.67
2024-01-15T11:03:12.230Z,4.79
2024-01-15T11:04:12.335Z,4.77
2024-01-15T11:05:12.211Z,4.95
2024-01-15T11:06:12.441Z,5.01
2024-01-15T11:07:12.332Z,5.09
2024-01-15T11:08:12.428Z,5.07
2024-01-15T11:09:12.443Z,5.08
2024-01-15T11:10:12.375Z,5.00
2024-01-15T11:11:12.380Z,5.14
2024-01-15T11:12:12.496Z,5.26
2024-01-15T11:13:12.393Z,5.18
2024-01-15T11:14:12.912Z,5.18
2024-01-15T11:15:12.501Z,5.25
2024-01-15T11:16:12.492Z,5.18
2024-01-15T11:17:12.528Z,5.31
2024-01-15T11:18:12.666Z,5.27
2024-01-15T11:19:14.027Z,5.32
2024-01-15T11:20:12.569Z,5.37
2024-01-15T11:21:12.663Z,5.38
2024-01-15T11:22:12.608Z,5.36
2024-01-15T11:23:13.462Z,5.37
2024-01-15T11:24:12.936Z,5.37
2024-01-15T11:25:12.725Z,5.33
2024-01-15T11:26:12.727Z,5.25
2024-01-15T11:27:12.827Z,5.30
2024-01-15T11:28:12.772Z,5.24
2024-01-15T11:29:12.825Z,5.27
2024-01-15T11:30:12.994Z,5.21
2024-01-15T11:31:12.942Z,5.23
2024-01-15T11:32:13.004Z,5.28
2024-01-15T11:33:13.144Z,5.13
2024-01-15T11:34:13.184Z,5.17
2024-01-15T11:35:13.266Z,5.26
2024-01-15T11:36:13.296Z,5.26
2024-01-15T11:37:13.292Z,5.12
2024-01-15T11:38:13.362Z,5.11
2024-01-15T11:39:13.460Z,4.99
2024-01-15T11:40:13.467Z,5.09
2024-01-15T11:41:13.517Z,5.53
2024-01-15T11:42:13.661Z,5.65
2024-01-15T11:43:13.586Z,5.20
2024-01-15T11:44:13.586Z,4.68
2024-01-15T11:45:13.686Z,4.13
2024-01-15T11:46:13.665Z,3.56
2024-01-15T11:47:16.007Z,3.35
2024-01-15T11:48:14.289Z,3.18
2024-01-15T11:49:13.983Z,2.98
2024-01-15T11:50:13.722Z,2.82
2024-01-15T11:51:13.729Z,2.71
2024-01-15T11:52:13.683Z,2.61
2024-01-15T11:53:13.662Z,2.46
2024-01-15T11:54:13.766Z,2.32
2024-01-15T11:55:13.722Z,2.27
2024-01-15T11:56:13.700Z,2.18
2024-01-15T11:57:13.799Z,2.12
2024-01-15T11:58:13.690Z,2.02
2024-01-15T11:59:13.691Z,1.92
2024-01-15T12:00:13.828Z,1.86
2024-01-15T12:01:13.876Z,1.79
2024-01-15T12:02:13.697Z,1.76
2024-01-15T12:03:13.768Z,1.71
2024-01-15T12:04:14.778Z,1.72
2024-01-15T12:05:13.775Z,1.67
2024-01-15T12:06:13.732Z,1.63
2024-01-15T12:07:13.861Z,1.61
2024-01-15T12:08:13.770Z,1.58
2024-01-15T12:09:13.805Z,1.62
2024-01-15T12:10:15.338Z,1.62
2024-01-15T12:11:13.724Z,1.62
2024-01-15T12:12:13.778Z,1.63
2024-01-15T12:13:13.754Z,1.62
2024-01-15T12:14:13.936Z,1.58
2024-01-15T12:15:13.747Z,1.58
2024-01-15T12:16:13.768Z,1.62
2024-01-15T12:17:13.843Z,1.64
2024-01-15T12:18:13.907Z,1.66
2024-01-15T12:19:13.866Z,1.68
2024-01-15T12:20:13.801Z,1.67
2024-01-15T12:21:13.749Z,1.63
2024-01-15T12:22:13.788Z,1.47
2024-01-15T12:23:13.726Z,1.49
2024-01-15T12:24:13.770Z,1.46
2024-01-15T12:25:13.730Z,1.52
2024-01-15T12:26:13.743Z,1.59
2024-01-15T12:27:13.813Z,1.58
2024-01-15T12:28:13.766Z,1.71
2024-01-15T12:29:13.748Z,1.71
2024-01-15T12:30:14.060Z,1.60
2024-01-15T12:31:14.540Z,1.59
2024-01-15T12:32:14.498Z,1.57
2024-01-15T12:33:13.847Z,1.57
2024-01-15T12:34:13.808Z,1.54
2024-01-15T12:35:13.999Z,1.55
2024-01-15T12:36:13.746Z,1.51
2024-01-15T12:37:13.760Z,1.54
2024-01-15T12:38:13.813Z,1.59
2024-01-15T12:39:13.783Z,1.58
2024-01-15T12:40:13.992Z,1.61
2024-01-15T12:41:13.746Z,1.62
2024-01-15T12:42:13.772Z,1.62
2024-01-15T12:43:13.815Z,1.59
2024-01-15T12:44:13.777Z,1.56
2024-01-15T12:45:13.826Z,1.60
2024-01-15T12:46:16.102Z,1.56
2024-01-15T12:47:13.788Z,1.58
2024-01-15T12:48:13.842Z,1.60
2024-01-15T12:49:13.837Z,1.60
2024-01-15T12:50:19.376Z,1.60
2024-01-15T12:51:14.822Z,1.61
2024-01-15T12:52:13.783Z,1.60
2024-01-15T12:53:13.761Z,1.58
2024-01-15T12:54:13.787Z,1.54
2024-01-15T12:55:13.807Z,1.57
2024-01-15T12:56:13.765Z,1.54
2024-01-15T12:57:13.834Z,1.50
2024-01-15T12:58:13.788Z,1.47
2024-01-15T12:59:13.785Z,1.48
2024-01-15T13:00:14.921Z,1.45
2024-01-15T13:01:13.874Z,1.42
2024-01-15T13:02:13.781Z,1.40
2024-01-15T13:03:13.911Z,1.39
2024-01-15T13:04:13.904Z,1.36
2024-01-15T13:05:15.179Z,1.33
2024-01-15T13:06:13.909Z,1.27
2024-01-15T13:07:13.874Z,1.27
2024-01-15T13:08:13.894Z,1.23
2024-01-15T13:09:13.869Z,1.22
2024-01-15T13:10:13.975Z,1.18
2024-01-15T13:11:13.881Z,1.20
2024-01-15T13:12:13.945Z,1.16
2024-01-15T13:13:13.916Z,1.19
2024-01-15T13:14:13.948Z,1.15
2024-01-15T13:15:15.305Z,1.16
2024-01-15T13:16:13.981Z,1.14
2024-01-15T13:17:14.456Z,1.15
2024-01-15T13:18:14.114Z,1.14
2024-01-15T13:19:14.205Z,1.12
2024-01-15T13:20:14.403Z,1.13
2024-01-15T13:21:14.199Z,1.10